createdAt,value
2019-03-08T00:00:45.784Z,26.92
2019-03-08T00:01:45.787Z,26.89
2019-03-08T00:02:45.790Z,26.97
2019-03-08T00:03:45.793Z,26.92
2019-03-08T00:04:45.795Z,26.94
2019-03-08T00:05:45.802Z,26.95
2019-03-08T00:06:45.800Z,26.92
2019-03-08T00:07:45.806Z,26.92
2019-03-08T00:08:45.807Z,26.91
2019-03-08T00:09:45.811Z,26.88
2019-03-08T00:10:45.813Z,26.91
2019-03-08T00:11:45.817Z,26.84
2019-03-08T00:12:45.821Z,26.91
2019-03-08T00:13:45.858Z,26.92
2019-03-08T00:14:45.824Z,26.91
2019-03-08T00:15:45.831Z,26.88
2019-03-08T00:16:45.830Z,26.91
2019-03-08T00:17:45.834Z,26.88
2019-03-08T00:18:45.843Z,26.91
2019-03-08T00:19:45.840Z,26.87
2019-03-08T00:20:45.841Z,26.89
2019-03-08T00:21:45.846Z,26.84
2019-03-08T00:22:45.849Z,26.89
2019-03-08T00:23:45.850Z,26.91
2019-03-08T00:24:45.851Z,26.88
2019-03-08T00:25:45.906Z,26.87
2019-03-08T00:26:45.860Z,26.88
2019-03-08T00:27:45.862Z,26.80
2019-03-08T00:28:45.865Z,26.84
2019-03-08T00:29:45.867Z,26.87
2019-03-08T00:30:45.873Z,26.88
2019-03-08T00:31:45.875Z,26.77
2019-03-08T00:32:45.880Z,26.82
2019-03-08T00:33:45.880Z,26.77
2019-03-08T00:34:45.882Z,26.84
2019-03-08T00:35:45.886Z,26.80
2019-03-08T00:36:45.891Z,26.85
2019-03-08T00:37:45.891Z,26.88
2019-03-08T00:38:45.895Z,26.85
2019-03-08T00:39:45.897Z,26.84
2019-03-08T00:40:45.899Z,26.87
2019-03-08T00:41:45.903Z,26.85
2019-03-08T00:42:45.906Z,26.85
2019-03-08T00:43:45.910Z,26.82
2019-03-08T00:44:45.920Z,26.81
2019-03-08T00:45:45.913Z,26.87
2019-03-08T00:46:45.918Z,26.82
2019-03-08T00:47:45.970Z,26.92
2019-03-08T00:48:45.923Z,26.82
2019-03-08T00:49:45.924Z,26.84
2019-03-08T00:50:45.929Z,26.88
2019-03-08T00:51:45.930Z,26.81
2019-03-08T00:52:45.935Z,26.81
2019-03-08T00:53:45.936Z,26.85
2019-03-08T00:54:45.940Z,26.82
2019-03-08T00:55:45.946Z,26.88
2019-03-08T00:56:45.946Z,26.85
2019-03-08T00:57:45.948Z,26.76
2019-03-08T00:58:45.950Z,26.88
2019-03-08T00:59:46.056Z,26.82
2019-03-08T01:00:45.956Z,26.80
2019-03-08T01:01:45.957Z,26.85
2019-03-08T01:02:46.014Z,26.84
2019-03-08T01:03:45.966Z,26.75
2019-03-08T01:04:45.969Z,26.85
2019-03-08T01:05:45.971Z,26.84
2019-03-08T01:06:45.975Z,26.85
2019-03-08T01:07:45.979Z,26.80
2019-03-08T01:08:45.979Z,26.80
2019-03-08T01:09:45.983Z,26.85
2019-03-08T01:10:45.997Z,26.73
2019-03-08T01:11:45.988Z,26.80
2019-03-08T01:12:45.991Z,26.80
2019-03-08T01:13:45.996Z,26.84
2019-03-08T01:14:45.997Z,26.77
2019-03-08T01:15:46.001Z,26.87
2019-03-08T01:16:46.000Z,26.76
2019-03-08T01:17:46.010Z,26.80
2019-03-08T01:18:46.008Z,26.80
2019-03-08T01:19:46.011Z,26.80
2019-03-08T01:20:46.064Z,26.80
2019-03-08T01:21:46.019Z,26.76
2019-03-08T01:22:46.020Z,26.76
2019-03-08T01:23:46.024Z,26.84
2019-03-08T01:24:46.076Z,26.77
2019-03-08T01:25:46.029Z,26.81
2019-03-08T01:26:46.031Z,26.91
2019-03-08T01:27:46.036Z,26.80
2019-03-08T01:28:46.037Z,26.76
2019-03-08T01:29:46.043Z,26.70
2019-03-08T01:30:46.045Z,26.89
2019-03-08T01:31:46.046Z,26.89
2019-03-08T01:32:46.049Z,26.88
2019-03-08T01:33:46.052Z,26.77
2019-03-08T01:34:46.054Z,26.80
2019-03-08T01:35:46.157Z,26.81
2019-03-08T01:36:46.062Z,26.76
2019-03-08T01:37:46.062Z,26.80
2019-03-08T01:38:46.066Z,26.81
2019-03-08T01:39:46.070Z,26.82
2019-03-08T01:40:46.072Z,26.84
2019-03-08T01:41:46.074Z,26.77
2019-03-08T01:42:46.077Z,26.76
2019-03-08T01:43:46.081Z,26.76
2019-03-08T01:44:46.081Z,26.80
2019-03-08T01:45:46.085Z,26.76
2019-03-08T01:46:46.089Z,26.80
2019-03-08T01:47:46.091Z,26.76
2019-03-08T01:48:46.093Z,26.75
2019-03-08T01:49:46.096Z,26.82
2019-03-08T01:50:46.100Z,26.82
2019-03-08T01:51:46.104Z,26.73
2019-03-08T01:52:46.106Z,26.73
2019-03-08T01:53:46.108Z,26.75
2019-03-08T01:54:46.111Z,26.75
2019-03-08T01:55:46.128Z,26.70
2019-03-08T01:56:46.117Z,26.77
2019-03-08T01:57:46.118Z,26.75
2019-03-08T01:58:46.127Z,26.81
2019-03-08T01:59:46.130Z,26.76
2019-03-08T02:00:46.130Z,26.84
2019-03-08T02:01:46.131Z,26.77
2019-03-08T02:02:46.135Z,26.77
2019-03-08T02:03:46.137Z,26.85
2019-03-08T02:04:46.140Z,26.76
2019-03-08T02:05:46.142Z,26.82
2019-03-08T02:06:46.145Z,26.77
2019-03-08T02:07:46.149Z,26.81
2019-03-08T02:08:46.150Z,26.75
2019-03-08T02:09:46.153Z,26.75
2019-03-08T02:10:46.160Z,26.76
2019-03-08T02:11:46.163Z,26.73
2019-03-08T02:12:46.161Z,26.75
2019-03-08T02:13:46.168Z,26.76
2019-03-08T02:14:46.167Z,26.75
2019-03-08T02:15:46.172Z,26.82
2019-03-08T02:16:46.173Z,26.77
2019-03-08T02:17:46.175Z,26.82
2019-03-08T02:18:46.182Z,26.73
2019-03-08T02:19:46.182Z,26.76
2019-03-08T02:20:46.184Z,26.76
2019-03-08T02:21:46.237Z,26.81
2019-03-08T02:22:46.191Z,26.75
2019-03-08T02:23:46.193Z,26.75
2019-03-08T02:24:46.196Z,26.70
2019-03-08T02:25:46.198Z,26.77
2019-03-08T02:26:46.208Z,26.73
2019-03-08T02:27:46.211Z,26.73
2019-03-08T02:28:46.211Z,26.73
2019-03-08T02:29:46.215Z,26.75
2019-03-08T02:30:46.216Z,26.73
2019-03-08T02:31:46.216Z,26.73
2019-03-08T02:32:46.217Z,26.75
2019-03-08T02:33:46.220Z,26.70
2019-03-08T02:34:46.224Z,26.72
2019-03-08T02:35:46.227Z,26.80
2019-03-08T02:36:46.229Z,26.77
2019-03-08T02:37:46.232Z,26.70
2019-03-08T02:38:46.235Z,26.75
2019-03-08T02:39:46.239Z,26.72
2019-03-08T02:40:46.340Z,26.72
2019-03-08T02:41:46.249Z,26.84
2019-03-08T02:42:46.246Z,26.80
2019-03-08T02:43:46.252Z,26.76
2019-03-08T02:44:46.252Z,26.82
2019-03-08T02:45:46.256Z,26.77
2019-03-08T02:46:46.257Z,26.76
2019-03-08T02:47:46.312Z,26.77
2019-03-08T02:48:46.268Z,26.72
2019-03-08T02:49:46.267Z,26.77
2019-03-08T02:50:46.274Z,26.77
2019-03-08T02:51:46.277Z,26.70
2019-03-08T02:52:46.274Z,26.72
2019-03-08T02:53:46.276Z,26.76
2019-03-08T02:54:46.279Z,26.73
2019-03-08T02:55:46.283Z,26.73
2019-03-08T02:56:46.287Z,26.73
2019-03-08T02:57:46.289Z,26.69
2019-03-08T02:58:46.292Z,26.76
2019-03-08T02:59:46.294Z,26.76
2019-03-08T03:00:46.395Z,26.70
2019-03-08T03:01:46.301Z,26.81
2019-03-08T03:02:46.302Z,26.77
2019-03-08T03:03:46.314Z,26.75
2019-03-08T03:04:46.310Z,26.75
2019-03-08T03:05:46.310Z,26.75
2019-03-08T03:06:46.314Z,26.69
2019-03-08T03:07:46.317Z,26.76
2019-03-08T03:08:46.318Z,26.70
2019-03-08T03:09:46.322Z,26.75
2019-03-08T03:10:46.349Z,26.75
2019-03-08T03:11:46.330Z,26.81
2019-03-08T03:12:46.329Z,26.72
2019-03-08T03:13:46.334Z,26.69
2019-03-08T03:14:46.335Z,26.72
2019-03-08T03:15:46.338Z,26.80
2019-03-08T03:16:46.340Z,26.76
2019-03-08T03:17:46.344Z,26.75
2019-03-08T03:18:46.346Z,26.76
2019-03-08T03:19:46.350Z,26.75
2019-03-08T03:20:46.350Z,26.73
2019-03-08T03:21:46.359Z,26.82
2019-03-08T03:22:46.358Z,26.75
2019-03-08T03:23:46.360Z,26.67
2019-03-08T03:24:46.363Z,26.72
2019-03-08T03:25:46.366Z,26.69
2019-03-08T03:26:46.369Z,26.70
2019-03-08T03:27:46.373Z,26.70
2019-03-08T03:28:46.374Z,26.73
2019-03-08T03:29:46.427Z,26.70
2019-03-08T03:30:46.391Z,26.80
2019-03-08T03:31:46.389Z,26.69
2019-03-08T03:32:46.394Z,26.69
2019-03-08T03:33:46.390Z,26.77
2019-03-08T03:34:46.391Z,26.77
2019-03-08T03:35:46.396Z,26.77
2019-03-08T03:36:46.415Z,26.70
2019-03-08T03:37:46.398Z,26.76
2019-03-08T03:38:46.403Z,26.76
2019-03-08T03:39:46.405Z,26.73
2019-03-08T03:40:46.410Z,26.75
2019-03-08T03:41:46.410Z,26.82
2019-03-08T03:42:46.415Z,26.69
2019-03-08T03:43:46.466Z,26.70
2019-03-08T03:44:46.421Z,26.80
2019-03-08T03:45:46.421Z,26.69
2019-03-08T03:46:46.425Z,26.72
2019-03-08T03:47:46.489Z,26.75
2019-03-08T03:48:46.430Z,26.73
2019-03-08T03:49:46.434Z,26.70
2019-03-08T03:50:46.436Z,26.72
2019-03-08T03:51:46.439Z,26.80
2019-03-08T03:52:46.442Z,26.72
2019-03-08T03:53:46.444Z,26.70
2019-03-08T03:54:46.448Z,26.72
2019-03-08T03:55:46.450Z,26.69
2019-03-08T03:56:46.452Z,26.70
2019-03-08T03:57:46.455Z,26.70
2019-03-08T03:58:46.508Z,26.70
2019-03-08T03:59:46.470Z,26.70
2019-03-08T04:00:46.519Z,26.70
2019-03-08T04:01:46.467Z,26.72
2019-03-08T04:02:46.469Z,26.72
2019-03-08T04:03:46.475Z,26.70
2019-03-08T04:04:46.475Z,26.69
2019-03-08T04:05:46.480Z,26.69
2019-03-08T04:06:46.481Z,26.73
2019-03-08T04:07:46.486Z,26.77
2019-03-08T04:08:46.635Z,26.73
2019-03-08T04:09:46.489Z,26.70
2019-03-08T04:10:46.494Z,26.77
2019-03-08T04:11:46.497Z,26.69
2019-03-08T04:12:46.496Z,26.77
2019-03-08T04:13:46.699Z,26.72
2019-03-08T04:14:46.502Z,26.69
2019-03-08T04:15:46.508Z,26.76
2019-03-08T04:16:46.507Z,26.77
2019-03-08T04:17:46.511Z,26.75
2019-03-08T04:18:46.513Z,26.75
2019-03-08T04:19:46.516Z,26.75
2019-03-08T04:20:46.521Z,26.75
2019-03-08T04:21:46.572Z,26.72
2019-03-08T04:22:46.528Z,26.72
2019-03-08T04:23:46.528Z,26.72
2019-03-08T04:24:46.833Z,26.70
2019-03-08T04:25:46.533Z,26.73
2019-03-08T04:26:46.537Z,26.70
2019-03-08T04:27:46.542Z,26.72
2019-03-08T04:28:46.542Z,26.70
2019-03-08T04:29:46.543Z,26.70
2019-03-08T04:30:46.547Z,26.67
2019-03-08T04:31:46.548Z,26.75
2019-03-08T04:32:46.554Z,26.70
2019-03-08T04:33:46.555Z,26.73
2019-03-08T04:34:46.658Z,26.63
2019-03-08T04:35:46.561Z,26.76
2019-03-08T04:36:46.563Z,26.70
2019-03-08T04:37:46.568Z,26.80
2019-03-08T04:38:46.569Z,26.72
2019-03-08T04:39:46.573Z,26.69
2019-03-08T04:40:46.574Z,26.80
2019-03-08T04:41:46.578Z,26.75
2019-03-08T04:42:46.583Z,26.69
2019-03-08T04:43:46.583Z,26.70
2019-03-08T04:44:46.585Z,26.73
2019-03-08T04:45:46.589Z,26.77
2019-03-08T04:46:46.591Z,26.70
2019-03-08T04:47:46.596Z,26.69
2019-03-08T04:48:46.597Z,26.72
2019-03-08T04:49:46.599Z,26.73
2019-03-08T04:50:46.655Z,26.75
2019-03-08T04:51:46.604Z,26.76
2019-03-08T04:52:46.606Z,26.76
2019-03-08T04:53:46.617Z,26.70
2019-03-08T04:54:46.614Z,26.72
2019-03-08T04:55:46.617Z,26.73
2019-03-08T04:56:46.622Z,26.69
2019-03-08T04:57:46.621Z,26.70
2019-03-08T04:58:46.725Z,26.72
2019-03-08T04:59:46.628Z,26.69
2019-03-08T05:00:46.630Z,26.76
2019-03-08T05:01:46.633Z,26.75
2019-03-08T05:02:46.635Z,26.75
2019-03-08T05:03:46.639Z,26.69
2019-03-08T05:04:46.699Z,26.70
2019-03-08T05:05:46.699Z,26.73
2019-03-08T05:06:46.650Z,26.76
2019-03-08T05:07:46.650Z,26.73
2019-03-08T05:08:46.668Z,26.75
2019-03-08T05:09:46.655Z,26.65
2019-03-08T05:10:46.659Z,26.70
2019-03-08T05:11:46.661Z,26.69
2019-03-08T05:12:46.667Z,26.75
2019-03-08T05:13:46.666Z,26.77
2019-03-08T05:14:46.771Z,26.77
2019-03-08T05:15:46.673Z,26.81
2019-03-08T05:16:46.675Z,26.69
2019-03-08T05:17:46.678Z,26.81
2019-03-08T05:18:46.680Z,26.80
2019-03-08T05:19:46.683Z,26.73
2019-03-08T05:20:46.687Z,26.73
2019-03-08T05:21:46.690Z,26.80
2019-03-08T05:22:46.691Z,26.80
2019-03-08T05:23:46.696Z,26.76
2019-03-08T05:24:46.698Z,26.80
2019-03-08T05:25:46.700Z,26.87
2019-03-08T05:26:46.710Z,26.75
2019-03-08T05:27:46.715Z,26.82
2019-03-08T05:28:46.713Z,26.85
2019-03-08T05:29:46.714Z,26.88
2019-03-08T05:30:46.712Z,26.92
2019-03-08T05:31:46.719Z,26.92
2019-03-08T05:32:46.719Z,26.89
2019-03-08T05:33:46.723Z,26.92
2019-03-08T05:34:46.731Z,26.89
2019-03-08T05:35:46.729Z,26.97
2019-03-08T05:36:46.786Z,26.92
2019-03-08T05:37:46.894Z,26.91
2019-03-08T05:38:46.736Z,26.97
2019-03-08T05:39:46.789Z,26.94
2019-03-08T05:40:46.741Z,26.99
2019-03-08T05:41:46.746Z,26.99
2019-03-08T05:42:46.747Z,27.00
2019-03-08T05:43:46.750Z,27.02
2019-03-08T05:44:46.802Z,27.07
2019-03-08T05:45:46.756Z,27.02
2019-03-08T05:46:46.759Z,27.06
2019-03-08T05:47:46.763Z,27.13
2019-03-08T05:48:46.765Z,27.13
2019-03-08T05:49:46.767Z,27.14
2019-03-08T05:50:46.771Z,27.14
2019-03-08T05:51:46.823Z,27.14
2019-03-08T05:52:46.775Z,27.25
2019-03-08T05:53:46.780Z,27.21
2019-03-08T05:54:46.782Z,27.24
2019-03-08T05:55:46.792Z,27.25
2019-03-08T05:56:46.795Z,27.18
2019-03-08T05:57:46.790Z,27.32
2019-03-08T05:58:46.794Z,27.32
2019-03-08T05:59:46.796Z,27.37
2019-03-08T06:00:46.797Z,27.37
2019-03-08T06:01:46.803Z,27.37
2019-03-08T06:02:46.810Z,27.43
2019-03-08T06:03:46.808Z,27.46
2019-03-08T06:04:46.862Z,27.43
2019-03-08T06:05:46.815Z,27.40
2019-03-08T06:06:46.819Z,27.39
2019-03-08T06:07:46.820Z,27.54
2019-03-08T06:08:46.846Z,27.43
2019-03-08T06:09:46.826Z,27.44
2019-03-08T06:10:46.829Z,27.51
2019-03-08T06:11:46.835Z,27.47
2019-03-08T06:12:46.835Z,27.49
2019-03-08T06:13:46.841Z,27.41
2019-03-08T06:14:46.842Z,27.49
2019-03-08T06:15:46.845Z,27.47
2019-03-08T06:16:46.847Z,27.44
2019-03-08T06:17:46.849Z,27.50
2019-03-08T06:18:46.858Z,27.50
2019-03-08T06:19:46.957Z,27.51
2019-03-08T06:20:46.863Z,27.62
2019-03-08T06:21:46.913Z,27.51
2019-03-08T06:22:46.867Z,27.57
2019-03-08T06:23:46.870Z,27.57
2019-03-08T06:24:46.872Z,27.55
2019-03-08T06:25:46.875Z,27.55
2019-03-08T06:26:46.883Z,27.51
2019-03-08T06:27:46.884Z,27.55
2019-03-08T06:28:46.885Z,27.60
2019-03-08T06:29:46.986Z,27.54
2019-03-08T06:30:46.891Z,27.57
2019-03-08T06:31:46.894Z,27.70
2019-03-08T06:32:46.897Z,27.67
2019-03-08T06:33:47.001Z,27.65
2019-03-08T06:34:46.953Z,27.60
2019-03-08T06:35:46.907Z,27.69
2019-03-08T06:36:46.913Z,27.60
2019-03-08T06:37:46.962Z,27.63
2019-03-08T06:38:46.915Z,27.74
2019-03-08T06:39:46.921Z,27.66
2019-03-08T06:40:46.923Z,27.67
2019-03-08T06:41:46.927Z,27.63
2019-03-08T06:42:46.930Z,27.75
2019-03-08T06:43:46.932Z,27.78
2019-03-08T06:44:47.085Z,27.69
2019-03-08T06:45:46.938Z,27.67
2019-03-08T06:46:46.943Z,27.82
2019-03-08T06:47:46.946Z,27.70
2019-03-08T06:48:47.100Z,27.63
2019-03-08T06:49:47.203Z,27.69
2019-03-08T06:50:46.956Z,27.69
2019-03-08T06:51:46.958Z,27.82
2019-03-08T06:52:47.060Z,27.70
2019-03-08T06:53:46.968Z,27.74
2019-03-08T06:54:46.971Z,27.70
2019-03-08T06:55:46.971Z,27.75
2019-03-08T06:56:46.974Z,27.69
2019-03-08T06:57:46.979Z,27.63
2019-03-08T06:58:46.982Z,27.72
2019-03-08T06:59:46.984Z,27.72
2019-03-08T07:00:47.288Z,27.67
2019-03-08T07:01:47.590Z,27.63
2019-03-08T07:02:47.395Z,27.77
2019-03-08T07:03:47.351Z,27.75
2019-03-08T07:04:47.202Z,27.77
2019-03-08T07:05:47.103Z,27.75
2019-03-08T07:06:47.004Z,27.70
2019-03-08T07:07:47.260Z,27.78
2019-03-08T07:08:47.013Z,27.70
2019-03-08T07:09:47.167Z,27.75
2019-03-08T07:10:47.020Z,27.78
2019-03-08T07:11:47.022Z,27.70
2019-03-08T07:12:47.088Z,27.72
2019-03-08T07:13:47.028Z,27.79
2019-03-08T07:14:47.032Z,27.77
2019-03-08T07:15:47.036Z,27.69
2019-03-08T07:16:47.039Z,27.70
2019-03-08T07:17:47.056Z,27.74
2019-03-08T07:18:47.044Z,27.78
2019-03-08T07:19:47.060Z,27.72
2019-03-08T07:20:47.060Z,27.78
2019-03-08T07:21:47.107Z,27.79
2019-03-08T07:22:47.059Z,27.74
2019-03-08T07:23:47.166Z,27.79
2019-03-08T07:24:47.071Z,27.82
2019-03-08T07:25:51.441Z,27.77
2019-03-08T07:26:47.119Z,27.72
2019-03-08T07:27:47.077Z,27.78
2019-03-08T07:28:47.127Z,27.79
2019-03-08T07:29:47.081Z,27.82
2019-03-08T07:30:47.084Z,27.81
2019-03-08T07:31:47.093Z,27.77
2019-03-08T07:32:47.090Z,27.70
2019-03-08T07:33:53.164Z,27.78
2019-03-08T07:34:47.098Z,27.81
2019-03-08T07:35:47.101Z,27.79
2019-03-08T07:36:47.104Z,27.81
2019-03-08T07:37:47.108Z,27.87
2019-03-08T07:38:47.110Z,27.75
2019-03-08T07:39:47.114Z,27.78
2019-03-08T07:40:47.165Z,27.72
2019-03-08T07:41:47.220Z,27.88
2019-03-08T07:42:47.122Z,27.81
2019-03-08T07:43:47.128Z,27.75
2019-03-08T07:44:47.137Z,27.75
2019-03-08T07:45:47.132Z,27.74
2019-03-08T07:46:47.238Z,27.72
2019-03-08T07:47:47.140Z,27.79
2019-03-08T07:48:47.195Z,27.79
2019-03-08T07:49:47.146Z,27.78
2019-03-08T07:50:47.300Z,27.85
2019-03-08T07:51:47.155Z,27.81
2019-03-08T07:52:47.156Z,27.82
2019-03-08T07:53:47.166Z,27.78
2019-03-08T07:54:52.969Z,27.78
2019-03-08T07:55:47.169Z,27.85
2019-03-08T07:56:47.168Z,27.78
2019-03-08T07:57:47.176Z,27.77
2019-03-08T07:58:47.180Z,27.81
2019-03-08T07:59:53.801Z,27.79
2019-03-08T08:00:47.182Z,27.77
2019-03-08T08:01:47.386Z,27.78
2019-03-08T08:02:47.293Z,27.78
2019-03-08T08:03:47.542Z,27.69
2019-03-08T08:04:47.197Z,27.74
2019-03-08T08:05:47.203Z,27.74
2019-03-08T08:06:47.201Z,27.85
2019-03-08T08:07:47.207Z,27.90
2019-03-08T08:08:51.730Z,27.79
2019-03-08T08:09:47.370Z,27.88
2019-03-08T08:10:47.217Z,27.90
2019-03-08T08:11:47.369Z,27.74
2019-03-08T08:12:47.222Z,27.87
2019-03-08T08:13:47.275Z,27.84
2019-03-08T08:14:47.281Z,27.78
2019-03-08T08:15:47.433Z,27.92
2019-03-08T08:16:47.338Z,27.96
2019-03-08T08:17:47.293Z,27.96
2019-03-08T08:18:47.343Z,27.88
2019-03-08T08:19:47.398Z,27.88
2019-03-08T08:20:47.348Z,27.88
2019-03-08T08:21:47.451Z,27.93
2019-03-08T08:22:47.312Z,27.85
2019-03-08T08:23:47.363Z,27.87
2019-03-08T08:24:47.264Z,27.88
2019-03-08T08:25:47.266Z,27.93
2019-03-08T08:26:47.372Z,27.90
2019-03-08T08:27:47.278Z,27.92
2019-03-08T08:28:50.072Z,27.88
2019-03-08T08:29:47.427Z,27.88
2019-03-08T08:30:47.283Z,27.82
2019-03-08T08:31:47.350Z,27.90
2019-03-08T08:32:47.390Z,27.88
2019-03-08T08:33:47.443Z,27.84
2019-03-08T08:34:47.348Z,27.78
2019-03-08T08:35:47.350Z,27.92
2019-03-08T08:36:47.302Z,27.92
2019-03-08T08:37:47.406Z,27.93
2019-03-08T08:38:47.308Z,27.92
2019-03-08T08:39:47.413Z,27.85
2019-03-08T08:40:47.517Z,27.79
2019-03-08T08:41:47.370Z,27.85
2019-03-08T08:42:47.375Z,27.87
2019-03-08T08:43:47.378Z,27.85
2019-03-08T08:44:47.529Z,27.87
2019-03-08T08:45:47.335Z,27.87
2019-03-08T08:46:47.337Z,27.93
2019-03-08T08:47:47.340Z,27.92
2019-03-08T08:48:47.393Z,27.81
2019-03-08T08:49:54.315Z,27.81
2019-03-08T08:50:47.449Z,27.82
2019-03-08T08:51:47.452Z,27.94
2019-03-08T08:52:47.407Z,27.82
2019-03-08T08:53:47.360Z,27.88
2019-03-08T08:54:47.364Z,27.82
2019-03-08T08:55:47.366Z,27.99
2019-03-08T08:56:47.371Z,27.87
2019-03-08T08:57:47.378Z,27.84
2019-03-08T08:58:47.375Z,27.96
2019-03-08T08:59:47.580Z,27.87
2019-03-08T09:00:47.535Z,27.85
2019-03-08T09:01:47.636Z,27.84
2019-03-08T09:02:47.791Z,27.94
2019-03-08T09:03:47.644Z,27.87
2019-03-08T09:04:47.446Z,27.85
2019-03-08T09:05:47.451Z,27.84
2019-03-08T09:06:47.406Z,27.82
2019-03-08T09:07:47.458Z,27.87
2019-03-08T09:08:47.520Z,27.84
2019-03-08T09:09:47.464Z,27.84
2019-03-08T09:10:47.418Z,27.79
2019-03-08T09:11:52.508Z,28.00
2019-03-08T09:12:47.524Z,27.84
2019-03-08T09:13:47.431Z,27.79
2019-03-08T09:14:47.431Z,27.87
2019-03-08T09:15:47.484Z,27.88
2019-03-08T09:16:47.506Z,27.94
2019-03-08T09:17:47.492Z,27.92
2019-03-08T09:18:47.504Z,27.81
2019-03-08T09:19:47.499Z,27.79
2019-03-08T09:20:47.551Z,27.82
2019-03-08T09:21:47.654Z,27.87
2019-03-08T09:22:47.558Z,27.81
2019-03-08T09:23:47.463Z,27.84
2019-03-08T09:24:47.663Z,27.79
2019-03-08T09:25:47.467Z,27.97
2019-03-08T09:26:47.471Z,27.82
2019-03-08T09:27:47.474Z,27.93
2019-03-08T09:28:47.528Z,27.87
2019-03-08T09:29:47.481Z,27.96
2019-03-08T09:30:47.635Z,27.90
2019-03-08T09:31:47.687Z,27.81
2019-03-08T09:32:47.490Z,27.92
2019-03-08T09:33:47.547Z,27.84
2019-03-08T09:34:47.647Z,27.92
2019-03-08T09:35:47.503Z,27.85
2019-03-08T09:36:47.557Z,27.84
2019-03-08T09:37:47.511Z,27.88
2019-03-08T09:38:47.528Z,27.85
2019-03-08T09:39:47.566Z,27.81
2019-03-08T09:40:47.521Z,27.87
2019-03-08T09:41:47.623Z,27.82
2019-03-08T09:42:47.578Z,27.84
2019-03-08T09:43:47.526Z,27.92
2019-03-08T09:44:47.680Z,27.93
2019-03-08T09:45:47.534Z,27.84
2019-03-08T09:46:49.236Z,27.79
2019-03-08T09:47:47.541Z,27.87
2019-03-08T09:48:48.950Z,27.81
2019-03-08T09:49:47.649Z,27.85
2019-03-08T09:50:47.551Z,27.81
2019-03-08T09:51:47.706Z,27.90
2019-03-08T09:52:47.609Z,27.88
2019-03-08T09:53:47.561Z,27.90
2019-03-08T09:54:47.865Z,27.82
2019-03-08T09:55:47.626Z,27.74
2019-03-08T09:56:47.579Z,27.88
2019-03-08T09:57:47.626Z,27.87
2019-03-08T09:58:47.592Z,27.96
2019-03-08T09:59:47.588Z,27.88
2019-03-08T10:00:47.974Z,27.84
2019-03-08T10:01:47.838Z,27.74
2019-03-08T10:02:47.590Z,27.87
2019-03-08T10:03:47.703Z,27.84
2019-03-08T10:04:47.947Z,27.92
2019-03-08T10:05:47.605Z,27.88
2019-03-08T10:06:47.774Z,27.72
2019-03-08T10:07:47.659Z,27.92
2019-03-08T10:08:47.613Z,27.82
2019-03-08T10:09:47.615Z,27.94
2019-03-08T10:10:47.777Z,27.90
2019-03-08T10:11:47.622Z,27.74
2019-03-08T10:12:47.775Z,27.82
2019-03-08T10:13:47.830Z,27.85
2019-03-08T10:14:47.731Z,27.87
2019-03-08T10:15:47.685Z,27.75
2019-03-08T10:16:47.650Z,27.85
2019-03-08T10:17:47.653Z,27.90
2019-03-08T10:18:47.724Z,27.74
2019-03-08T10:19:47.809Z,27.81
2019-03-08T10:20:47.652Z,27.87
2019-03-08T10:21:47.906Z,27.90
2019-03-08T10:22:48.317Z,27.88
2019-03-08T10:23:47.814Z,27.90
2019-03-08T10:24:47.966Z,27.82
2019-03-08T10:25:47.671Z,27.93
2019-03-08T10:26:47.773Z,27.82
2019-03-08T10:27:47.926Z,27.85
2019-03-08T10:28:47.680Z,27.87
2019-03-08T10:29:47.683Z,27.82
2019-03-08T10:30:48.035Z,27.79
2019-03-08T10:31:47.740Z,27.85
2019-03-08T10:32:47.743Z,27.90
2019-03-08T10:33:48.298Z,27.94
2019-03-08T10:34:47.848Z,27.87
2019-03-08T10:35:47.713Z,27.79
2019-03-08T10:36:47.754Z,27.78
2019-03-08T10:37:47.710Z,27.85
2019-03-08T10:38:47.716Z,27.88
2019-03-08T10:39:47.719Z,27.94
2019-03-08T10:40:47.722Z,27.87
2019-03-08T10:41:47.724Z,27.92
2019-03-08T10:42:47.732Z,27.84
2019-03-08T10:43:47.831Z,27.93
2019-03-08T10:44:47.733Z,27.82
2019-03-08T10:45:47.888Z,27.96
2019-03-08T10:46:47.741Z,27.85
2019-03-08T10:47:55.827Z,27.92
2019-03-08T10:48:47.865Z,27.87
2019-03-08T10:49:55.124Z,27.92
2019-03-08T10:50:47.754Z,27.81
2019-03-08T10:51:47.806Z,27.88
2019-03-08T10:52:47.911Z,27.88
2019-03-08T10:53:47.765Z,27.77
2019-03-08T10:54:47.771Z,27.88
2019-03-08T10:55:47.772Z,27.81
2019-03-08T10:56:47.774Z,27.90
2019-03-08T10:57:47.879Z,27.78
2019-03-08T10:58:47.832Z,27.84
2019-03-08T10:59:47.985Z,27.90
2019-03-08T11:00:47.937Z,27.85
2019-03-08T11:01:48.291Z,27.90
2019-03-08T11:02:48.323Z,27.92
2019-03-08T11:03:48.349Z,27.92
2019-03-08T11:04:47.800Z,27.92
2019-03-08T11:05:47.803Z,27.96
2019-03-08T11:06:47.861Z,27.87
2019-03-08T11:07:47.813Z,27.92
2019-03-08T11:08:47.864Z,27.87
2019-03-08T11:09:47.968Z,27.92
2019-03-08T11:10:48.523Z,27.93
2019-03-08T11:11:48.275Z,27.85
2019-03-08T11:12:47.828Z,27.88
2019-03-08T11:13:47.831Z,27.84
2019-03-08T11:14:47.834Z,27.93
2019-03-08T11:15:48.043Z,27.94
2019-03-08T11:16:47.841Z,27.94
2019-03-08T11:17:51.046Z,27.94
2019-03-08T11:18:47.850Z,27.92
2019-03-08T11:19:48.253Z,27.90
2019-03-08T11:20:47.855Z,27.96
2019-03-08T11:21:47.859Z,27.87
2019-03-08T11:22:47.863Z,27.94
2019-03-08T11:23:47.867Z,27.93
2019-03-08T11:24:47.867Z,27.90
2019-03-08T11:25:49.081Z,27.93
2019-03-08T11:26:47.878Z,27.93
2019-03-08T11:27:47.880Z,27.92
2019-03-08T11:28:47.882Z,27.99
2019-03-08T11:29:47.887Z,27.96
2019-03-08T11:30:54.015Z,27.92
2019-03-08T11:31:47.948Z,27.88
2019-03-08T11:32:47.996Z,27.96
2019-03-08T11:33:47.899Z,27.85
2019-03-08T11:34:52.078Z,27.93
2019-03-08T11:35:47.907Z,27.88
2019-03-08T11:36:47.911Z,27.94
2019-03-08T11:37:47.914Z,27.90
2019-03-08T11:38:47.917Z,27.96
2019-03-08T11:39:47.920Z,27.97
2019-03-08T11:40:47.925Z,27.88
2019-03-08T11:41:48.127Z,27.87
2019-03-08T11:42:47.931Z,27.88
2019-03-08T11:43:47.934Z,27.97
2019-03-08T11:44:47.939Z,27.88
2019-03-08T11:45:47.942Z,27.96
2019-03-08T11:46:47.943Z,27.94
2019-03-08T11:47:48.015Z,27.88
2019-03-08T11:48:47.951Z,27.92
2019-03-08T11:49:48.405Z,27.93
2019-03-08T11:50:47.959Z,27.93
2019-03-08T11:51:48.012Z,27.93
2019-03-08T11:52:47.964Z,27.93
2019-03-08T11:53:55.920Z,27.90
2019-03-08T11:54:47.973Z,27.88
2019-03-08T11:55:47.976Z,27.87
2019-03-08T11:56:55.854Z,27.87
2019-03-08T11:57:47.981Z,27.96
2019-03-08T11:58:47.985Z,27.93
2019-03-08T11:59:47.989Z,27.88
2019-03-08T12:00:48.091Z,27.88
2019-03-08T12:01:47.996Z,27.94
2019-03-08T12:02:48.049Z,27.88
2019-03-08T12:03:48.000Z,27.96
2019-03-08T12:04:48.255Z,27.88
2019-03-08T12:05:49.882Z,27.85
2019-03-08T12:06:48.015Z,27.92
2019-03-08T12:07:48.018Z,27.93
2019-03-08T12:08:48.019Z,27.88
2019-03-08T12:09:48.027Z,27.92
2019-03-08T12:10:48.029Z,27.90
2019-03-08T12:11:48.030Z,27.94
2019-03-08T12:12:48.036Z,27.84
2019-03-08T12:13:48.189Z,27.93
2019-03-08T12:14:48.239Z,27.94
2019-03-08T12:15:48.048Z,27.93
2019-03-08T12:16:48.148Z,27.90
2019-03-08T12:17:48.051Z,27.92
2019-03-08T12:18:48.102Z,27.92
2019-03-08T12:19:48.360Z,27.92
2019-03-08T12:20:48.066Z,27.92
2019-03-08T12:21:48.065Z,27.94
2019-03-08T12:22:48.068Z,27.97
2019-03-08T12:23:48.074Z,27.84
2019-03-08T12:24:48.074Z,27.92
2019-03-08T12:25:48.380Z,27.93
2019-03-08T12:26:48.182Z,27.94
2019-03-08T12:27:48.184Z,27.94
2019-03-08T12:28:48.202Z,27.90
2019-03-08T12:29:48.342Z,27.87
2019-03-08T12:30:48.197Z,27.84
2019-03-08T12:31:48.153Z,27.85
2019-03-08T12:32:48.104Z,27.92
2019-03-08T12:33:48.104Z,27.88
2019-03-08T12:34:48.111Z,27.94
2019-03-08T12:35:48.116Z,27.87
2019-03-08T12:36:48.117Z,27.88
2019-03-08T12:37:48.220Z,27.93
2019-03-08T12:38:48.123Z,27.92
2019-03-08T12:39:48.429Z,27.88
2019-03-08T12:40:48.230Z,27.84
2019-03-08T12:41:48.133Z,27.88
2019-03-08T12:42:48.137Z,27.90
2019-03-08T12:43:48.242Z,27.92
2019-03-08T12:44:48.450Z,27.88
2019-03-08T12:45:48.147Z,27.90
2019-03-08T12:46:48.203Z,27.88
2019-03-08T12:47:48.204Z,27.93
2019-03-08T12:48:50.197Z,27.90
2019-03-08T12:49:48.419Z,27.94
2019-03-08T12:50:48.164Z,27.94
2019-03-08T12:51:48.167Z,27.92
2019-03-08T12:52:48.172Z,27.87